createdAt,value
2022-10-20T00:00:23.968Z,101303.3
2022-10-20T00:02:29.670Z,101304.2
2022-10-20T00:04:34.870Z,101299.88
2022-10-20T00:06:40.164Z,101301.31
2022-10-20T00:08:45.485Z,101300.95
2022-10-20T00:12:57.444Z,101311.53
2022-10-20T00:15:02.409Z,101313.33
2022-10-20T00:17:07.421Z,101314.55
2022-10-20T00:19:12.432Z,101316.61
2022-10-20T00:21:17.516Z,101320.5
2022-10-20T00:23:22.373Z,101317.12
2022-10-20T00:25:27.815Z,101317.28
2022-10-20T00:27:33.199Z,101314.19
2022-10-20T00:29:38.515Z,101312.77
2022-10-20T00:31:43.940Z,101312.51
2022-10-20T00:33:49.307Z,101310.73
2022-10-20T00:35:55.280Z,101312.51
2022-10-20T00:38:01.311Z,101310.3
2022-10-20T00:40:07.151Z,101305.23
2022-10-20T00:42:16.264Z,101305.72
2022-10-20T00:44:21.419Z,101304.71
2022-10-20T00:46:26.747Z,101306.8
2022-10-20T00:48:32.025Z,101311.97
2022-10-20T00:50:37.173Z,101307.64
2022-10-20T00:52:42.136Z,101306.65
2022-10-20T00:54:47.188Z,101311.52
2022-10-20T00:56:52.742Z,101313.72
2022-10-20T00:58:57.943Z,101312.48
2022-10-20T01:01:03.023Z,101311.5
2022-10-20T01:03:08.278Z,101311.2
2022-10-20T01:05:13.266Z,101311.44
2022-10-20T01:07:18.313Z,101310.39
2022-10-20T01:09:23.633Z,101310.16
2022-10-20T01:11:30.077Z,101312.46
2022-10-20T01:13:35.489Z,101307.25
2022-10-20T01:15:40.487Z,101312.29
2022-10-20T01:17:46.061Z,101311.59
2022-10-20T01:19:51.145Z,101312.59
2022-10-20T01:21:56.478Z,101315.64
2022-10-20T01:24:01.489Z,101314.73
2022-10-20T01:26:06.799Z,101313.98
2022-10-20T01:28:11.865Z,101313.3
2022-10-20T01:30:16.993Z,101309.25
2022-10-20T01:32:22.187Z,101306.78
2022-10-20T01:34:27.324Z,101303.64
2022-10-20T01:36:32.729Z,101308.88
2022-10-20T01:38:37.858Z,101309.94
2022-10-20T01:40:42.968Z,101311.63
2022-10-20T01:42:48.148Z,101301.91
2022-10-20T01:44:53.506Z,101307.13
2022-10-20T01:46:58.626Z,101309.92
2022-10-20T01:49:03.624Z,101307.92
2022-10-20T01:51:08.695Z,101306.21
2022-10-20T01:53:14.371Z,101307.34
2022-10-20T01:55:19.253Z,101307.47
2022-10-20T01:57:24.400Z,101311.73
2022-10-20T01:59:29.493Z,101310.99
2022-10-20T02:01:34.882Z,101310.42
2022-10-20T02:03:40.581Z,101310.33
2022-10-20T02:05:45.504Z,101314.55
2022-10-20T02:07:50.657Z,101314.95
2022-10-20T02:09:56.095Z,101319.9
2022-10-20T02:12:01.202Z,101313.6
2022-10-20T02:14:06.522Z,101310.92
2022-10-20T02:16:11.525Z,101311.64
2022-10-20T02:18:16.965Z,101308.22
2022-10-20T02:20:22.244Z,101305.04
2022-10-20T02:22:27.248Z,101305.78
2022-10-20T02:24:32.366Z,101307.28
2022-10-20T02:26:37.987Z,101307.89
2022-10-20T02:28:42.838Z,101305.48
2022-10-20T02:30:48.227Z,101300.97
2022-10-20T02:32:53.635Z,101310.38
2022-10-20T02:35:01.196Z,101308
2022-10-20T02:37:10.961Z,101300.63
2022-10-20T02:39:16.217Z,101302.17
2022-10-20T02:41:21.239Z,101299.6
2022-10-20T02:43:26.444Z,101297.19
2022-10-20T02:45:31.861Z,101297.48
2022-10-20T02:47:37.705Z,101297.02
2022-10-20T02:49:43.961Z,101291.35
2022-10-20T02:51:49.206Z,101295.35
2022-10-20T02:53:54.432Z,101292.89
2022-10-20T02:55:59.426Z,101297.8
2022-10-20T02:58:04.768Z,101300.45
2022-10-20T03:00:10.166Z,101307.37
2022-10-20T03:02:15.391Z,101312.83
2022-10-20T03:04:20.515Z,101309.36
2022-10-20T03:06:25.931Z,101306.73
2022-10-20T03:08:31.338Z,101307.06
2022-10-20T03:10:36.797Z,101313.55
2022-10-20T03:12:42.001Z,101315.22
2022-10-20T03:14:47.390Z,101315.77
2022-10-20T03:16:55.782Z,101314.52
2022-10-20T03:19:08.205Z,101309.3
2022-10-20T03:21:15.892Z,101306.86
2022-10-20T03:23:21.625Z,101309.88
2022-10-20T03:25:26.851Z,101306.92
2022-10-20T03:27:32.241Z,101311.56
2022-10-20T03:29:38.574Z,101312.28
2022-10-20T03:31:44.091Z,101312.89
2022-10-20T03:33:49.889Z,101311.55
2022-10-20T03:35:54.939Z,101316.11
2022-10-20T03:38:00.353Z,101317.17
2022-10-20T03:40:05.846Z,101318.31
2022-10-20T03:42:11.286Z,101319.36
2022-10-20T03:44:16.412Z,101320.82
2022-10-20T03:46:21.940Z,101324.93
2022-10-20T03:48:27.226Z,101323.93
2022-10-20T03:50:32.542Z,101331.13
2022-10-20T03:52:38.932Z,101331.61
2022-10-20T03:54:44.266Z,101330.11
2022-10-20T03:56:49.486Z,101334.23
2022-10-20T03:58:54.717Z,101332.69
2022-10-20T04:01:00.432Z,101334.41
2022-10-20T04:03:05.682Z,101339.4
2022-10-20T04:05:10.913Z,101338.03
2022-10-20T04:07:15.993Z,101339.28
2022-10-20T04:09:21.241Z,101343.86
2022-10-20T04:11:26.524Z,101340.84
2022-10-20T04:13:32.052Z,101344.63
2022-10-20T04:15:37.254Z,101348.84
2022-10-20T04:17:42.633Z,101343.14
2022-10-20T04:19:48.079Z,101344.91
2022-10-20T04:21:53.354Z,101342.63
2022-10-20T04:23:58.785Z,101342.92
2022-10-20T04:26:03.977Z,101346.98
2022-10-20T04:28:09.519Z,101347.35
2022-10-20T04:30:14.586Z,101345.4
2022-10-20T04:32:20.446Z,101350.77
2022-10-20T04:34:25.947Z,101353.02
2022-10-20T04:36:32.135Z,101350.52
2022-10-20T04:38:37.444Z,101349.23
2022-10-20T04:40:43.204Z,101344.82
2022-10-20T04:42:48.790Z,101344.72
2022-10-20T04:44:55.023Z,101343.63
2022-10-20T04:47:01.363Z,101346.81
2022-10-20T04:49:07.243Z,101345.91
2022-10-20T04:51:13.051Z,101344.7
2022-10-20T04:53:18.662Z,101348.17
2022-10-20T04:55:24.586Z,101348.51
2022-10-20T04:57:30.554Z,101351.14
2022-10-20T04:59:35.936Z,101350.81
2022-10-20T05:01:41.314Z,101350.42
2022-10-20T05:03:46.902Z,101350.36
2022-10-20T05:05:52.433Z,101348.48
2022-10-20T05:07:57.726Z,101354.2
2022-10-20T05:10:03.953Z,101354.02
2022-10-20T05:12:10.710Z,101355.28
2022-10-20T05:14:17.854Z,101354.67
2022-10-20T05:16:23.171Z,101350.19
2022-10-20T05:18:28.715Z,101357.45
2022-10-20T05:21:04.181Z,101363.8
2022-10-20T05:23:14.649Z,101363.54
2022-10-20T05:25:37.508Z,101363.51
2022-10-20T05:27:42.979Z,101369.02
2022-10-20T05:29:48.881Z,101372.2
2022-10-20T05:31:54.519Z,101374.45
2022-10-20T05:33:59.818Z,101373.86
2022-10-20T05:36:05.363Z,101377.81
2022-10-20T05:38:10.972Z,101381.48
2022-10-20T05:40:16.441Z,101380.47
2022-10-20T05:42:21.691Z,101378.47
2022-10-20T05:44:26.857Z,101380.24
2022-10-20T05:46:32.122Z,101378.34
2022-10-20T05:48:43.430Z,101383.4
2022-10-20T05:50:49.148Z,101382.53
2022-10-20T05:52:54.698Z,101382.88
2022-10-20T05:55:00.066Z,101388.09
2022-10-20T05:57:05.470Z,101388.77
2022-10-20T05:59:10.950Z,101394.48
2022-10-20T06:01:16.576Z,101398.89
2022-10-20T06:03:28.260Z,101400.08
2022-10-20T06:05:34.382Z,101398.2
2022-10-20T06:07:39.824Z,101396.27
2022-10-20T06:09:45.487Z,101401.7
2022-10-20T06:11:51.100Z,101401.57
2022-10-20T06:13:56.496Z,101406.92
2022-10-20T06:16:01.765Z,101411.23
2022-10-20T06:18:07.554Z,101409.2
2022-10-20T06:20:13.206Z,101409.09
2022-10-20T06:22:18.506Z,101412.77
2022-10-20T06:24:24.108Z,101410.66
2022-10-20T06:26:29.378Z,101410.94
2022-10-20T06:28:34.760Z,101411.52
2022-10-20T06:30:39.971Z,101410.59
2022-10-20T06:32:45.772Z,101412.77
2022-10-20T06:34:50.966Z,101412.39
2022-10-20T06:36:56.376Z,101421.72
2022-10-20T06:39:01.802Z,101420.72
2022-10-20T06:41:07.122Z,101422
2022-10-20T06:43:12.639Z,101429.74
2022-10-20T06:45:19.155Z,101437.22
2022-10-20T06:47:24.391Z,101437.74
2022-10-20T06:49:29.566Z,101442.08
2022-10-20T06:51:35.461Z,101443.45
2022-10-20T06:53:45.928Z,101442.39
2022-10-20T06:55:52.295Z,101445.13
2022-10-20T06:57:57.564Z,101446.64
2022-10-20T07:00:02.963Z,101443.71
2022-10-20T07:02:08.654Z,101448.98
2022-10-20T07:04:14.351Z,101444.61
2022-10-20T07:06:19.888Z,101442.06
2022-10-20T07:08:24.877Z,101439.69
2022-10-20T07:10:30.790Z,101447.01
2022-10-20T07:12:37.029Z,101451
2022-10-20T07:14:43.078Z,101450.14
2022-10-20T07:16:48.298Z,101448.38
2022-10-20T07:18:53.579Z,101452.92
2022-10-20T07:20:59.240Z,101458.62
2022-10-20T07:23:04.359Z,101463.45
2022-10-20T07:25:09.920Z,101465.69
2022-10-20T07:27:15.230Z,101468.86
2022-10-20T07:29:20.618Z,101470.46
2022-10-20T07:31:26.159Z,101472.16
2022-10-20T07:33:31.394Z,101470.47
2022-10-20T07:35:36.652Z,101473.36
2022-10-20T07:37:41.902Z,101474.19
2022-10-20T07:39:47.537Z,101476.94
2022-10-20T07:41:53.026Z,101472.45
2022-10-20T07:43:58.725Z,101474.75
2022-10-20T07:46:03.960Z,101470.36
2022-10-20T07:48:09.205Z,101470.59
2022-10-20T07:50:14.432Z,101475.11
2022-10-20T07:52:23.738Z,101476.61
2022-10-20T07:54:28.959Z,101479.69
2022-10-20T07:56:34.339Z,101479.03
2022-10-20T07:58:40.349Z,101478.63
2022-10-20T08:00:45.523Z,101481.31
2022-10-20T08:02:50.821Z,101477.53
2022-10-20T08:04:56.324Z,101480.59
2022-10-20T08:07:01.621Z,101481.72
2022-10-20T08:09:06.788Z,101483.11
2022-10-20T08:11:12.080Z,101485.73
2022-10-20T08:13:17.435Z,101485.06
2022-10-20T08:15:22.868Z,101484.22
2022-10-20T08:17:28.005Z,101480.85
2022-10-20T08:19:45.415Z,101480.57
2022-10-20T08:22:04.647Z,101489.25
2022-10-20T08:24:09.809Z,101484.7
2022-10-20T08:26:16.461Z,101485.66
2022-10-20T08:28:26.257Z,101484.27
2022-10-20T08:30:32.447Z,101484.09
2022-10-20T08:32:38.736Z,101491.03
2022-10-20T08:34:44.291Z,101489.28
2022-10-20T08:36:49.647Z,101491.53
2022-10-20T08:38:55.003Z,101491.33
2022-10-20T08:41:04.235Z,101491.53
2022-10-20T08:43:09.321Z,101487.02
2022-10-20T08:45:14.818Z,101488.67
2022-10-20T08:47:20.109Z,101487.7
2022-10-20T08:49:25.728Z,101488.03
2022-10-20T08:51:31.192Z,101485.39
2022-10-20T08:53:37.381Z,101480.79
2022-10-20T08:55:42.714Z,101472.69
2022-10-20T08:57:48.044Z,101473.64
2022-10-20T08:59:53.298Z,101468.3
2022-10-20T09:01:58.554Z,101458.45
2022-10-20T09:04:04.570Z,101463.03
2022-10-20T09:06:10.175Z,101460.88
2022-10-20T09:08:15.648Z,101459.58
2022-10-20T09:10:21.178Z,101450.48
2022-10-20T09:12:32.450Z,101452.2
2022-10-20T09:14:37.869Z,101452.47
2022-10-20T09:17:01.055Z,101447.58
2022-10-20T09:19:08.272Z,101448.19
2022-10-20T09:21:13.446Z,101451.41
2022-10-20T09:23:42.344Z,101446.03
2022-10-20T09:25:48.635Z,101450.6
2022-10-20T09:27:54.012Z,101451.13
2022-10-20T09:29:59.456Z,101450.45
2022-10-20T09:32:46.791Z,101445.44
2022-10-20T09:34:53.636Z,101446.08
2022-10-20T09:36:59.004Z,101445.09
2022-10-20T09:39:04.524Z,101445.2
2022-10-20T09:41:09.778Z,101447.52
2022-10-20T09:43:15.685Z,101452.23
2022-10-20T09:45:21.697Z,101447.28
2022-10-20T09:47:27.129Z,101446.7
2022-10-20T09:49:32.257Z,101443.8
2022-10-20T09:51:37.398Z,101446.22
2022-10-20T09:53:42.872Z,101445.84
2022-10-20T09:55:49.033Z,101451.83
2022-10-20T09:57:54.315Z,101451.19
2022-10-20T10:00:25.471Z,101447.67
2022-10-20T10:02:42.875Z,101445.31
2022-10-20T10:04:50.025Z,101444.53
2022-10-20T10:06:56.244Z,101449.04
2022-10-20T10:09:01.917Z,101442.45
2022-10-20T10:11:07.933Z,101441.36
2022-10-20T10:13:13.327Z,101436.6
2022-10-20T10:15:18.696Z,101440.36
2022-10-20T10:17:23.849Z,101441.31
2022-10-20T10:19:32.355Z,101439.43
2022-10-20T10:21:38.039Z,101443.33
2022-10-20T10:23:43.309Z,101438.47
2022-10-20T10:25:48.888Z,101442.47
2022-10-20T10:27:54.187Z,101440.64
2022-10-20T10:29:59.499Z,101439.63
2022-10-20T10:32:04.922Z,101433.14
2022-10-20T10:34:10.264Z,101430.44
2022-10-20T10:36:16.540Z,101435.98
2022-10-20T10:38:21.786Z,101430.67
2022-10-20T10:40:27.353Z,101432.75
2022-10-20T10:42:33.823Z,101426.49
2022-10-20T10:44:40.302Z,101418.66
2022-10-20T10:46:46.814Z,101417.92
2022-10-20T10:48:52.091Z,101417.56
2022-10-20T10:50:57.654Z,101413.94
2022-10-20T10:53:03.301Z,101419.34
2022-10-20T10:55:09.979Z,101410.98
2022-10-20T10:57:52.677Z,101413.79
2022-10-20T10:59:58.692Z,101410.88
2022-10-20T11:02:04.999Z,101403
2022-10-20T11:04:10.772Z,101400.56
2022-10-20T11:06:16.099Z,101399.56
2022-10-20T11:08:21.525Z,101398.17
2022-10-20T11:10:26.947Z,101396.39
2022-10-20T11:12:32.459Z,101390.42
2022-10-20T11:14:37.737Z,101385
2022-10-20T11:16:44.327Z,101381.9
2022-10-20T11:18:49.510Z,101376.33
2022-10-20T11:20:56.457Z,101371.55
2022-10-20T11:23:01.856Z,101370.3
2022-10-20T11:25:08.089Z,101367.44
2022-10-20T11:27:14.580Z,101369.69
2022-10-20T11:29:19.830Z,101367.95
2022-10-20T11:31:25.172Z,101366.64
2022-10-20T11:33:30.726Z,101363.62
2022-10-20T11:35:40.389Z,101359.98
2022-10-20T11:37:46.258Z,101354.66
2022-10-20T11:39:51.967Z,101353.78
2022-10-20T11:41:57.411Z,101350.63
2022-10-20T11:44:02.995Z,101352.81
2022-10-20T11:46:08.385Z,101353.14
2022-10-20T11:48:13.906Z,101346.47
2022-10-20T11:50:19.206Z,101346.89
2022-10-20T11:52:27.760Z,101345.27
2022-10-20T11:54:32.887Z,101348.74
2022-10-20T11:56:38.439Z,101345.81
2022-10-20T11:58:43.998Z,101345.88
2022-10-20T12:00:49.960Z,101344.24
2022-10-20T12:03:00.711Z,101338.22
2022-10-20T12:05:06.555Z,101336.79
2022-10-20T12:07:12.105Z,101333.2
2022-10-20T12:09:18.018Z,101331.63
2022-10-20T12:11:24.307Z,101328.3
2022-10-20T12:13:29.666Z,101329.27
2022-10-20T12:15:35.183Z,101326.75
2022-10-20T12:17:40.604Z,101326.3
2022-10-20T12:19:46.289Z,101325.89
2022-10-20T12:21:51.745Z,101325.66
2022-10-20T12:23:56.882Z,101319.95
2022-10-20T12:26:02.292Z,101321.9
2022-10-20T12:28:11.358Z,101319.91
2022-10-20T12:30:16.863Z,101318.97
2022-10-20T12:32:22.514Z,101320.77
2022-10-20T12:34:28.938Z,101323.97
2022-10-20T12:36:34.150Z,101324.63
2022-10-20T12:38:39.522Z,101319.77
2022-10-20T12:40:44.787Z,101315.75
2022-10-20T12:42:51.229Z,101327.23
2022-10-20T12:44:56.623Z,101319.03
2022-10-20T12:47:01.874Z,101319.14
2022-10-20T12:49:11.757Z,101315.77
2022-10-20T12:51:17.725Z,101312.13
2022-10-20T12:53:23.202Z,101312.27
2022-10-20T12:57:39.027Z,101313.66
2022-10-20T12:59:44.704Z,101311.23
2022-10-20T13:01:50.003Z,101307.52
2022-10-20T13:03:55.365Z,101309.83
2022-10-20T13:06:00.632Z,101308.47
2022-10-20T13:08:06.202Z,101306.02
2022-10-20T13:10:12.722Z,101306.23
2022-10-20T13:12:18.268Z,101302.84
2022-10-20T13:14:23.508Z,101308.29
2022-10-20T13:16:28.756Z,101306.3
2022-10-20T13:18:34.064Z,101305.89
2022-10-20T13:20:39.376Z,101302.66
2022-10-20T13:22:44.501Z,101302.72
2022-10-20T13:24:51.692Z,101300.05
2022-10-20T13:27:01.123Z,101304.06
2022-10-20T13:29:07.192Z,101303.08
2022-10-20T13:31:12.622Z,101300.17
2022-10-20T13:34:02.358Z,101299.02
2022-10-20T13:36:11.770Z,101294.41
2022-10-20T13:38:17.051Z,101291.86
2022-10-20T13:40:25.339Z,101293.51
2022-10-20T13:42:30.852Z,101294.78
2022-10-20T13:44:36.474Z,101296.19
2022-10-20T13:46:42.497Z,101293.38
2022-10-20T13:48:48.293Z,101292.64
2022-10-20T13:50:55.434Z,101288.67
2022-10-20T13:53:02.375Z,101288.17
2022-10-20T13:55:08.765Z,101285.7
2022-10-20T13:57:14.317Z,101287.45
2022-10-20T13:59:19.669Z,101287.66
2022-10-20T14:01:26.391Z,101283.44
2022-10-20T14:03:32.658Z,101282.66
2022-10-20T14:05:38.347Z,101280.95
2022-10-20T14:07:43.866Z,101277.36
2022-10-20T14:09:54.675Z,101274.22
2022-10-20T14:12:01.841Z,101277.92
2022-10-20T14:14:08.122Z,101275.95
2022-10-20T14:16:13.903Z,101270.77
2022-10-20T14:18:19.414Z,101274.48
2022-10-20T14:20:24.642Z,101272.64
2022-10-20T14:22:30.255Z,101271.16
2022-10-20T14:24:35.996Z,101268.36
2022-10-20T14:26:41.760Z,101271.5
2022-10-20T14:28:47.116Z,101273.39
2022-10-20T14:30:52.850Z,101266.55
2022-10-20T14:32:58.585Z,101266.44
2022-10-20T14:35:04.423Z,101264.54
2022-10-20T14:37:10.558Z,101265.2
2022-10-20T14:39:16.358Z,101263.5
2022-10-20T14:41:21.927Z,101263.13
2022-10-20T14:43:27.714Z,101255.66
2022-10-20T14:45:33.516Z,101254.73
2022-10-20T14:47:39.646Z,101254.19
2022-10-20T14:49:46.961Z,101252.39
2022-10-20T14:51:57.498Z,101251.59
2022-10-20T14:54:03.529Z,101247.66
2022-10-20T14:56:09.598Z,101250.59
2022-10-20T14:58:17.781Z,101246.69
2022-10-20T15:00:25.054Z,101245.53
2022-10-20T15:02:31.123Z,101243.55
2022-10-20T15:04:38.248Z,101242.95
2022-10-20T15:06:43.708Z,101243.84
2022-10-20T15:08:49.860Z,101241.48
2022-10-20T15:10:56.449Z,101239.59
2022-10-20T15:13:02.832Z,101237.63
2022-10-20T15:15:09.256Z,101238.34
2022-10-20T15:17:15.429Z,101240.31
2022-10-20T15:19:21.640Z,101240.45
2022-10-20T15:21:27.966Z,101239.45
2022-10-20T15:23:34.352Z,101234.48
2022-10-20T15:25:40.400Z,101235
2022-10-20T15:27:46.749Z,101236.2
2022-10-20T15:29:53.091Z,101233.97
2022-10-20T15:31:59.079Z,101233.48
2022-10-20T15:34:06.044Z,101231.69
2022-10-20T15:36:12.303Z,101230.22
2022-10-20T15:38:20.372Z,101228.83
2022-10-20T15:40:26.991Z,101231.09
2022-10-20T15:42:33.929Z,101225.41
2022-10-20T15:44:41.242Z,101229.73
2022-10-20T15:46:47.868Z,101229.77
2022-10-20T15:48:54.421Z,101230.27
2022-10-20T15:51:01.775Z,101229.39
2022-10-20T15:53:09.275Z,101230.34
2022-10-20T15:55:15.379Z,101234.52
2022-10-20T15:57:22.804Z,101235.25
2022-10-20T15:59:29.258Z,101237.59
2022-10-20T16:01:35.887Z,101236.53
2022-10-20T16:03:43.297Z,101235.39
2022-10-20T16:05:51.442Z,101240.05
2022-10-20T16:07:57.862Z,101235.33
2022-10-20T16:10:04.335Z,101236.22
2022-10-20T16:12:12.368Z,101235.69
2022-10-20T16:14:18.948Z,101240.8
2022-10-20T16:16:26.538Z,101239.91
2022-10-20T16:18:34.135Z,101244.38
2022-10-20T16:20:41.083Z,101246.36
2022-10-20T16:22:49.352Z,101246.52
2022-10-20T16:24:59.194Z,101251.17
2022-10-20T16:27:06.447Z,101252.22
2022-10-20T16:29:13.437Z,101247.08
2022-10-20T16:31:19.433Z,101249.09
2022-10-20T16:33:25.452Z,101249.63
2022-10-20T16:35:33.517Z,101249.8
2022-10-20T16:37:41.241Z,101250.67
2022-10-20T16:39:48.262Z,101247.27
2022-10-20T16:41:58.026Z,101248.81
2022-10-20T16:44:05.208Z,101248.86
2022-10-20T16:46:13.744Z,101251.75
2022-10-20T16:48:20.037Z,101253.3
2022-10-20T16:50:28.487Z,101252.77
2022-10-20T16:52:35.781Z,101254.25
2022-10-20T16:54:42.950Z,101250.77
2022-10-20T16:56:52.437Z,101256.05
2022-10-20T16:59:01.574Z,101257.15
2022-10-20T17:01:11.529Z,101253.05
2022-10-20T17:03:21.991Z,101254.17
2022-10-20T17:05:35.032Z,101249.27
2022-10-20T17:07:49.244Z,101251.36
2022-10-20T17:09:59.329Z,101248.8
2022-10-20T17:12:08.383Z,101248.22
2022-10-20T17:14:18.997Z,101246.75
2022-10-20T17:16:30.083Z,101248.23
2022-10-20T17:18:39.191Z,101244.77
2022-10-20T17:20:47.433Z,101248.9
2022-10-20T17:22:58.676Z,101243.95
2022-10-20T17:25:10.112Z,101243.5
2022-10-20T17:27:19.582Z,101242.66
2022-10-20T17:29:30.579Z,101244.38
2022-10-20T17:31:42.205Z,101245.39
2022-10-20T17:33:57.536Z,101247.27
2022-10-20T17:36:09.594Z,101248.29
2022-10-20T17:38:18.568Z,101250.04
2022-10-20T17:40:28.784Z,101248.5
2022-10-20T17:42:43.243Z,101248.28
2022-10-20T17:44:52.592Z,101250.51
2022-10-20T17:47:00.015Z,101253.7
2022-10-20T17:49:14.563Z,101248.16
2022-10-20T17:51:29.059Z,101247.27
2022-10-20T17:53:45.732Z,101242.64
2022-10-20T17:55:55.924Z,101246.1
2022-10-20T17:58:12.314Z,101247.02
2022-10-20T18:00:51.450Z,101245.11
2022-10-20T18:03:15.212Z,101247.13
2022-10-20T18:05:24.014Z,101243.51
2022-10-20T18:07:37.895Z,101240.69
2022-10-20T18:09:48.583Z,101234.45
2022-10-20T18:12:04.798Z,101236.25
2022-10-20T18:14:14.589Z,101235.2
2022-10-20T18:16:26.437Z,101233.97
2022-10-20T18:18:41.386Z,101235.03
2022-10-20T18:21:04.835Z,101232.22
2022-10-20T18:23:13.484Z,101226.44
2022-10-20T18:25:22.661Z,101227.55
2022-10-20T18:27:33.605Z,101233.61
2022-10-20T18:29:43.803Z,101237.45
2022-10-20T18:31:53.184Z,101237.41
2022-10-20T18:34:07.837Z,101236.02
2022-10-20T18:36:27.534Z,101230.89
2022-10-20T18:38:38.301Z,101233.58
2022-10-20T18:40:58.807Z,101235.57
2022-10-20T18:43:15.665Z,101238.92
2022-10-20T18:45:28.703Z,101236.13
2022-10-20T18:47:39.210Z,101235.31
2022-10-20T18:49:58.566Z,101237.03
2022-10-20T18:52:07.792Z,101230.51
2022-10-20T18:54:25.538Z,101232.7
2022-10-20T18:56:36.929Z,101229.81
2022-10-20T18:58:47.827Z,101230.82
2022-10-20T19:01:00.115Z,101234.83
2022-10-20T19:03:12.162Z,101237.24
2022-10-20T19:05:33.297Z,101234.54
2022-10-20T19:07:45.779Z,101238.72
2022-10-20T19:10:00.367Z,101237.08
2022-10-20T19:12:14.771Z,101235.33
2022-10-20T19:14:38.165Z,101240
2022-10-20T19:17:01.153Z,101243.44
2022-10-20T19:19:20.745Z,101246.88
2022-10-20T19:21:34.529Z,101246.52
2022-10-20T19:23:51.238Z,101251.34
2022-10-20T19:26:01.772Z,101243.66
2022-10-20T19:28:21.213Z,101243.56
2022-10-20T19:30:34.875Z,101239.47
2022-10-20T19:32:46.844Z,101236.7
2022-10-20T19:34:57.731Z,101238.03
2022-10-20T19:37:11.559Z,101237.84
2022-10-20T19:41:32.187Z,101238.83
2022-10-20T19:43:46.120Z,101240.84
2022-10-20T19:45:57.830Z,101241.97
2022-10-20T19:48:09.118Z,101240.52
2022-10-20T19:50:19.399Z,101231.86
2022-10-20T19:52:33.451Z,101229.73
2022-10-20T19:54:44.500Z,101227.98
2022-10-20T19:56:55.625Z,101223.85
2022-10-20T19:59:09.572Z,101225.22
2022-10-20T20:01:17.778Z,101228.63
2022-10-20T20:03:25.632Z,101232.91
2022-10-20T20:05:34.001Z,101229.03
2022-10-20T20:07:44.631Z,101232.39
2022-10-20T20:09:53.444Z,101231.19
2022-10-20T20:12:02.212Z,101226.08
2022-10-20T20:14:11.083Z,101223.15
2022-10-20T20:16:19.186Z,101224.75
2022-10-20T20:18:28.415Z,101219.55
2022-10-20T20:20:36.485Z,101214.83
2022-10-20T20:22:44.723Z,101210.38
2022-10-20T20:24:52.866Z,101213.16
2022-10-20T20:27:00.907Z,101211.91
2022-10-20T20:29:08.032Z,101211.56
2022-10-20T20:31:19.797Z,101213.02
2022-10-20T20:33:28.376Z,101209.42
2022-10-20T20:35:37.433Z,101211.91
2022-10-20T20:37:44.353Z,101208.36
2022-10-20T20:39:50.764Z,101207.1
2022-10-20T20:41:58.789Z,101204.99
2022-10-20T20:44:10.204Z,101203.97
2022-10-20T20:46:16.789Z,101202.06
2022-10-20T20:48:24.433Z,101199.66
2022-10-20T20:50:30.795Z,101197.52
2022-10-20T20:52:39.110Z,101200.61
2022-10-20T20:54:45.275Z,101189.41
2022-10-20T20:56:51.741Z,101189.02
2022-10-20T20:58:57.856Z,101194.67
2022-10-20T21:01:03.958Z,101199.72
2022-10-20T21:03:10.416Z,101197.63
2022-10-20T21:05:16.836Z,101192.08
2022-10-20T21:07:23.466Z,101188.73
2022-10-20T21:09:29.989Z,101182.72
2022-10-20T21:11:35.988Z,101185.72
2022-10-20T21:13:42.089Z,101191.2
2022-10-20T21:15:48.206Z,101184.23
2022-10-20T21:17:54.736Z,101172.85
2022-10-20T21:20:00.844Z,101175.84
2022-10-20T21:22:06.746Z,101175.03
2022-10-20T21:24:12.842Z,101168.16
2022-10-20T21:26:19.320Z,101162.68
2022-10-20T21:28:25.064Z,101166.35
2022-10-20T21:32:38.045Z,101161.56
2022-10-20T21:34:44.024Z,101156.5
2022-10-20T21:36:49.278Z,101157.58
2022-10-20T21:38:55.233Z,101152.25
2022-10-20T21:41:01.540Z,101150.52
2022-10-20T21:43:07.404Z,101155.95
2022-10-20T21:45:19.021Z,101150.94
2022-10-20T21:47:25.728Z,101149.31
2022-10-20T21:49:32.252Z,101157.69
2022-10-20T21:51:38.551Z,101154.53
2022-10-20T21:53:43.788Z,101152.83
2022-10-20T21:55:49.358Z,101152.98
2022-10-20T21:57:55.072Z,101153.45
2022-10-20T22:00:00.479Z,101154.78
2022-10-20T22:02:06.528Z,101149.53
2022-10-20T22:04:12.530Z,101144.05
2022-10-20T22:06:18.643Z,101140.37
2022-10-20T22:08:24.285Z,101141.63
2022-10-20T22:10:30.393Z,101139
2022-10-20T22:14:46.422Z,101140.41
2022-10-20T22:16:52.617Z,101137.85
2022-10-20T22:18:57.906Z,101131.86
2022-10-20T22:21:02.956Z,101128.08
2022-10-20T22:23:14.214Z,101124.28
2022-10-20T22:25:19.524Z,101119.42
2022-10-20T22:27:42.915Z,101115.05
2022-10-20T22:29:48.433Z,101108.94
2022-10-20T22:32:00.329Z,101111.84
2022-10-20T22:34:05.460Z,101115.75
2022-10-20T22:36:11.131Z,101112.83
2022-10-20T22:38:16.476Z,101111.25
2022-10-20T22:40:21.811Z,101107.38
2022-10-20T22:42:26.872Z,101104.41
2022-10-20T22:44:32.184Z,101101.34
2022-10-20T22:46:37.516Z,101099.18
2022-10-20T22:48:43.272Z,101091.23
2022-10-20T22:50:48.806Z,101087.72
2022-10-20T22:52:54.490Z,101083.83
2022-10-20T22:54:59.704Z,101082.08
2022-10-20T22:57:04.870Z,101079.91
2022-10-20T22:59:10.285Z,101074.86
2022-10-20T23:01:15.849Z,101066.86
2022-10-20T23:03:21.302Z,101067.48
2022-10-20T23:05:26.427Z,101061.39
2022-10-20T23:07:35.011Z,101059.75
2022-10-20T23:09:41.379Z,101067.09
2022-10-20T23:11:46.673Z,101075.27
2022-10-20T23:13:51.852Z,101075.61
2022-10-20T23:15:57.196Z,101071.09
2022-10-20T23:18:02.222Z,101070.77
2022-10-20T23:20:07.502Z,101073.14
2022-10-20T23:22:12.695Z,101072.57
2022-10-20T23:24:18.169Z,101070.5
2022-10-20T23:26:23.268Z,101070.95
2022-10-20T23:28:28.436Z,101071.41
2022-10-20T23:30:33.721Z,101072.19
2022-10-20T23:32:39.319Z,101071.64
2022-10-20T23:34:44.569Z,101073.05
2022-10-20T23:36:50.272Z,101082.03
2022-10-20T23:38:55.486Z,101089.33
2022-10-20T23:41:00.655Z,101093.09
2022-10-20T23:43:06.375Z,101085.47
2022-10-20T23:45:11.952Z,101084.42
2022-10-20T23:47:17.558Z,101077.72
2022-10-20T23:49:23.260Z,101080.03
2022-10-20T23:51:28.425Z,101075.5
2022-10-20T23:53:33.674Z,101078.55
2022-10-20T23:55:42.232Z,101068.66
2022-10-20T23:57:47.378Z,101069.63
2022-10-20T23:59:52.602Z,101074.28
